sensor_id;sensor_type;location;lat;lon;timestamp;temperature;humidity
50738;DHT22;36703;48.154;17.126;2023-05-07T00:01:43;20.90;51.70
50738;DHT22;36703;48.154;17.126;2023-05-07T00:05:46;20.90;51.70
50738;DHT22;36703;48.154;17.126;2023-05-07T00:09:47;20.90;51.70
50738;DHT22;36703;48.154;17.126;2023-05-07T00:13:49;20.90;51.70
50738;DHT22;36703;48.154;17.126;2023-05-07T00:17:50;20.90;51.80
50738;DHT22;36703;48.154;17.126;2023-05-07T00:21:52;21.00;51.80
50738;DHT22;36703;48.154;17.126;2023-05-07T00:25:55;21.00;51.80
50738;DHT22;36703;48.154;17.126;2023-05-07T00:29:57;21.00;51.80
50738;DHT22;36703;48.154;17.126;2023-05-07T00:33:58;21.00;51.80
50738;DHT22;36703;48.154;17.126;2023-05-07T00:38:00;21.00;51.70
50738;DHT22;36703;48.154;17.126;2023-05-07T00:42:02;21.00;51.70
50738;DHT22;36703;48.154;17.126;2023-05-07T00:46:04;20.90;51.70
50738;DHT22;36703;48.154;17.126;2023-05-07T00:50:07;20.90;51.90
50738;DHT22;36703;48.154;17.126;2023-05-07T00:54:09;20.90;51.90
50738;DHT22;36703;48.154;17.126;2023-05-07T00:58:11;20.90;52.00
50738;DHT22;36703;48.154;17.126;2023-05-07T01:02:12;20.80;52.00
50738;DHT22;36703;48.154;17.126;2023-05-07T01:06:14;20.80;52.20
50738;DHT22;36703;48.154;17.126;2023-05-07T01:10:18;20.70;52.40
50738;DHT22;36703;48.154;17.126;2023-05-07T01:14:20;20.70;52.60
50738;DHT22;36703;48.154;17.126;2023-05-07T01:18:22;20.70;52.80
50738;DHT22;36703;48.154;17.126;2023-05-07T01:22:35;20.60;53.00
50738;DHT22;36703;48.154;17.126;2023-05-07T01:26:39;20.60;53.20
50738;DHT22;36703;48.154;17.126;2023-05-07T01:30:46;20.60;53.10
50738;DHT22;36703;48.154;17.126;2023-05-07T01:34:52;20.50;53.10
50738;DHT22;36703;48.154;17.126;2023-05-07T01:38:55;20.60;53.20
50738;DHT22;36703;48.154;17.126;2023-05-07T01:42:59;20.60;53.10
50738;DHT22;36703;48.154;17.126;2023-05-07T01:47:02;20.60;53.10
50738;DHT22;36703;48.154;17.126;2023-05-07T01:51:04;20.60;53.10
50738;DHT22;36703;48.154;17.126;2023-05-07T01:55:07;20.60;53.00
50738;DHT22;36703;48.154;17.126;2023-05-07T01:59:09;20.60;52.90
50738;DHT22;36703;48.154;17.126;2023-05-07T02:03:11;20.50;53.00
50738;DHT22;36703;48.154;17.126;2023-05-07T02:07:23;20.50;53.00
50738;DHT22;36703;48.154;17.126;2023-05-07T02:11:25;20.60;52.90
50738;DHT22;36703;48.154;17.126;2023-05-07T02:15:27;20.60;52.90
50738;DHT22;36703;48.154;17.126;2023-05-07T02:19:29;20.60;52.90
50738;DHT22;36703;48.154;17.126;2023-05-07T02:23:31;20.40;53.00
50738;DHT22;36703;48.154;17.126;2023-05-07T02:27:32;20.40;53.10
50738;DHT22;36703;48.154;17.126;2023-05-07T02:31:35;20.40;53.20
50738;DHT22;36703;48.154;17.126;2023-05-07T02:35:36;20.30;53.20
50738;DHT22;36703;48.154;17.126;2023-05-07T02:39:38;20.40;53.20
50738;DHT22;36703;48.154;17.126;2023-05-07T02:43:39;20.40;53.10
50738;DHT22;36703;48.154;17.126;2023-05-07T02:47:41;20.50;53.00
50738;DHT22;36703;48.154;17.126;2023-05-07T02:51:43;20.50;53.00
50738;DHT22;36703;48.154;17.126;2023-05-07T02:55:53;20.50;53.00
50738;DHT22;36703;48.154;17.126;2023-05-07T02:59:55;20.50;53.10
50738;DHT22;36703;48.154;17.126;2023-05-07T03:03:57;20.50;53.10
50738;DHT22;36703;48.154;17.126;2023-05-07T03:07:59;20.50;53.10
50738;DHT22;36703;48.154;17.126;2023-05-07T03:12:00;20.50;53.10
50738;DHT22;36703;48.154;17.126;2023-05-07T03:16:03;20.50;53.20
50738;DHT22;36703;48.154;17.126;2023-05-07T03:20:05;20.50;53.30
50738;DHT22;36703;48.154;17.126;2023-05-07T03:24:07;20.40;53.30
50738;DHT22;36703;48.154;17.126;2023-05-07T03:28:09;20.40;53.40
50738;DHT22;36703;48.154;17.126;2023-05-07T03:32:17;20.30;53.50
50738;DHT22;36703;48.154;17.126;2023-05-07T03:36:19;20.30;53.70
50738;DHT22;36703;48.154;17.126;2023-05-07T03:40:21;20.30;53.70
50738;DHT22;36703;48.154;17.126;2023-05-07T03:44:26;20.30;53.70
50738;DHT22;36703;48.154;17.126;2023-05-07T03:48:28;20.30;53.70
50738;DHT22;36703;48.154;17.126;2023-05-07T03:52:32;20.10;54.00
50738;DHT22;36703;48.154;17.126;2023-05-07T03:56:36;20.00;54.70
50738;DHT22;36703;48.154;17.126;2023-05-07T04:00:37;20.00;54.60
50738;DHT22;36703;48.154;17.126;2023-05-07T04:04:51;20.00;54.40
50738;DHT22;36703;48.154;17.126;2023-05-07T04:08:53;20.00;54.40
50738;DHT22;36703;48.154;17.126;2023-05-07T04:12:55;20.00;54.40
50738;DHT22;36703;48.154;17.126;2023-05-07T04:16:59;19.90;54.40
50738;DHT22;36703;48.154;17.126;2023-05-07T04:21:01;19.80;54.60
50738;DHT22;36703;48.154;17.126;2023-05-07T04:25:03;19.70;54.80
50738;DHT22;36703;48.154;17.126;2023-05-07T04:29:07;19.50;55.10
50738;DHT22;36703;48.154;17.126;2023-05-07T04:33:09;19.40;55.40
50738;DHT22;36703;48.154;17.126;2023-05-07T04:37:13;19.40;55.50
50738;DHT22;36703;48.154;17.126;2023-05-07T04:41:15;19.40;55.60
50738;DHT22;36703;48.154;17.126;2023-05-07T04:45:18;19.40;55.60
50738;DHT22;36703;48.154;17.126;2023-05-07T04:49:21;19.40;55.40
50738;DHT22;36703;48.154;17.126;2023-05-07T04:53:25;19.40;55.10
50738;DHT22;36703;48.154;17.126;2023-05-07T04:57:28;19.30;55.10
50738;DHT22;36703;48.154;17.126;2023-05-07T05:01:30;19.10;55.20
50738;DHT22;36703;48.154;17.126;2023-05-07T05:05:32;19.00;55.50
50738;DHT22;36703;48.154;17.126;2023-05-07T05:09:34;19.00;55.60
50738;DHT22;36703;48.154;17.126;2023-05-07T05:13:36;18.90;55.40
50738;DHT22;36703;48.154;17.126;2023-05-07T05:17:44;18.90;55.60
50738;DHT22;36703;48.154;17.126;2023-05-07T05:21:47;18.90;55.60
50738;DHT22;36703;48.154;17.126;2023-05-07T05:25:48;18.90;55.60
50738;DHT22;36703;48.154;17.126;2023-05-07T05:29:51;19.00;55.60
50738;DHT22;36703;48.154;17.126;2023-05-07T05:33:52;19.00;55.40
50738;DHT22;36703;48.154;17.126;2023-05-07T05:37:54;19.00;55.60
50738;DHT22;36703;48.154;17.126;2023-05-07T05:41:57;19.10;55.50
50738;DHT22;36703;48.154;17.126;2023-05-07T05:45:59;19.10;55.50
50738;DHT22;36703;48.154;17.126;2023-05-07T05:50:02;19.10;55.50
50738;DHT22;36703;48.154;17.126;2023-05-07T05:54:04;19.10;55.60
50738;DHT22;36703;48.154;17.126;2023-05-07T05:58:07;19.00;55.70
50738;DHT22;36703;48.154;17.126;2023-05-07T06:02:12;19.00;55.90
50738;DHT22;36703;48.154;17.126;2023-05-07T06:06:14;18.90;55.90
50738;DHT22;36703;48.154;17.126;2023-05-07T06:10:17;18.90;56.00
50738;DHT22;36703;48.154;17.126;2023-05-07T06:14:19;18.80;56.10
50738;DHT22;36703;48.154;17.126;2023-05-07T06:18:21;18.80;56.30
50738;DHT22;36703;48.154;17.126;2023-05-07T06:22:23;18.80;56.50
50738;DHT22;36703;48.154;17.126;2023-05-07T06:26:24;18.80;56.50
50738;DHT22;36703;48.154;17.126;2023-05-07T06:30:27;18.80;56.60
50738;DHT22;36703;48.154;17.126;2023-05-07T06:34:30;18.80;56.50
50738;DHT22;36703;48.154;17.126;2023-05-07T06:38:32;18.90;56.60
50738;DHT22;36703;48.154;17.126;2023-05-07T06:42:33;19.10;56.50
50738;DHT22;36703;48.154;17.126;2023-05-07T06:46:53;19.10;56.50
50738;DHT22;36703;48.154;17.126;2023-05-07T06:50:54;19.10;56.50
50738;DHT22;36703;48.154;17.126;2023-05-07T06:54:59;19.20;57.10
50738;DHT22;36703;48.154;17.126;2023-05-07T06:59:02;19.30;56.50
50738;DHT22;36703;48.154;17.126;2023-05-07T07:03:08;19.50;56.90
50738;DHT22;36703;48.154;17.126;2023-05-07T07:07:10;19.60;56.00
50738;DHT22;36703;48.154;17.126;2023-05-07T07:11:13;19.70;56.00
50738;DHT22;36703;48.154;17.126;2023-05-07T07:15:16;19.80;55.80
50738;DHT22;36703;48.154;17.126;2023-05-07T07:19:19;19.70;55.80
50738;DHT22;36703;48.154;17.126;2023-05-07T07:23:23;19.70;55.90
50738;DHT22;36703;48.154;17.126;2023-05-07T07:27:25;19.90;55.90
50738;DHT22;36703;48.154;17.126;2023-05-07T07:31:26;19.90;55.60
50738;DHT22;36703;48.154;17.126;2023-05-07T07:35:32;19.80;55.60
50738;DHT22;36703;48.154;17.126;2023-05-07T07:39:34;19.90;55.80
50738;DHT22;36703;48.154;17.126;2023-05-07T07:43:36;20.00;55.70
50738;DHT22;36703;48.154;17.126;2023-05-07T07:47:38;20.20;55.50
50738;DHT22;36703;48.154;17.126;2023-05-07T07:51:42;20.20;55.20
50738;DHT22;36703;48.154;17.126;2023-05-07T07:55:45;20.30;55.20
50738;DHT22;36703;48.154;17.126;2023-05-07T07:59:51;20.40;55.10
50738;DHT22;36703;48.154;17.126;2023-05-07T08:03:53;20.40;55.00
50738;DHT22;36703;48.154;17.126;2023-05-07T08:07:56;20.40;54.90
50738;DHT22;36703;48.154;17.126;2023-05-07T08:12:03;20.30;55.60
50738;DHT22;36703;48.154;17.126;2023-05-07T08:16:08;20.30;55.30
50738;DHT22;36703;48.154;17.126;2023-05-07T08:20:11;20.30;55.50
50738;DHT22;36703;48.154;17.126;2023-05-07T08:24:16;20.50;55.20
50738;DHT22;36703;48.154;17.126;2023-05-07T08:28:18;20.50;55.00
50738;DHT22;36703;48.154;17.126;2023-05-07T08:32:21;20.60;54.90
50738;DHT22;36703;48.154;17.126;2023-05-07T08:36:23;20.60;54.80
50738;DHT22;36703;48.154;17.126;2023-05-07T08:40:26;20.60;54.80
50738;DHT22;36703;48.154;17.126;2023-05-07T08:44:33;20.50;54.70
50738;DHT22;36703;48.154;17.126;2023-05-07T08:48:36;20.60;54.60
50738;DHT22;36703;48.154;17.126;2023-05-07T08:52:43;20.90;54.10
50738;DHT22;36703;48.154;17.126;2023-05-07T08:56:45;21.20;53.50
50738;DHT22;36703;48.154;17.126;2023-05-07T09:00:47;21.40;53.00
50738;DHT22;36703;48.154;17.126;2023-05-07T09:04:50;21.60;52.60
50738;DHT22;36703;48.154;17.126;2023-05-07T09:08:53;21.80;52.80
50738;DHT22;36703;48.154;17.126;2023-05-07T09:12:58;22.00;51.50
50738;DHT22;36703;48.154;17.126;2023-05-07T09:17:00;22.10;51.10
50738;DHT22;36703;48.154;17.126;2023-05-07T09:21:02;22.10;50.90
50738;DHT22;36703;48.154;17.126;2023-05-07T09:25:07;22.20;50.70
50738;DHT22;36703;48.154;17.126;2023-05-07T09:29:11;22.30;50.40
50738;DHT22;36703;48.154;17.126;2023-05-07T09:33:14;22.50;50.20
50738;DHT22;36703;48.154;17.126;2023-05-07T09:37:20;22.70;49.70
50738;DHT22;36703;48.154;17.126;2023-05-07T09:41:21;22.80;49.30
50738;DHT22;36703;48.154;17.126;2023-05-07T09:45:46;22.90;48.50
50738;DHT22;36703;48.154;17.126;2023-05-07T09:49:56;23.20;48.30
50738;DHT22;36703;48.154;17.126;2023-05-07T09:54:02;23.40;48.00
50738;DHT22;36703;48.154;17.126;2023-05-07T09:58:06;23.60;47.60
50738;DHT22;36703;48.154;17.126;2023-05-07T10:02:09;23.80;47.00
50738;DHT22;36703;48.154;17.126;2023-05-07T10:06:23;24.10;46.30
50738;DHT22;36703;48.154;17.126;2023-05-07T10:10:26;24.30;45.60
50738;DHT22;36703;48.154;17.126;2023-05-07T10:14:29;24.40;45.60
50738;DHT22;36703;48.154;17.126;2023-05-07T10:18:31;24.80;45.10
50738;DHT22;36703;48.154;17.126;2023-05-07T10:22:41;25.50;44.80
50738;DHT22;36703;48.154;17.126;2023-05-07T10:26:50;27.00;43.50
50738;DHT22;36703;48.154;17.126;2023-05-07T10:35:40;30.00;39.40
50738;DHT22;36703;48.154;17.126;2023-05-07T10:39:44;30.90;38.40
50738;DHT22;36703;48.154;17.126;2023-05-07T10:43:46;31.20;37.00
50738;DHT22;36703;48.154;17.126;2023-05-07T10:48:13;31.30;36.10
50738;DHT22;36703;48.154;17.126;2023-05-07T10:52:23;31.60;35.10
50738;DHT22;36703;48.154;17.126;2023-05-07T10:56:42;32.30;34.10
50738;DHT22;36703;48.154;17.126;2023-05-07T11:00:50;32.00;33.70
50738;DHT22;36703;48.154;17.126;2023-05-07T11:05:19;32.10;33.10
50738;DHT22;36703;48.154;17.126;2023-05-07T11:13:58;32.30;32.00
50738;DHT22;36703;48.154;17.126;2023-05-07T11:18:23;32.40;32.00
50738;DHT22;36703;48.154;17.126;2023-05-07T11:26:54;32.90;31.00
50738;DHT22;36703;48.154;17.126;2023-05-07T11:30:59;32.50;30.90
50738;DHT22;36703;48.154;17.126;2023-05-07T11:35:01;32.40;30.90
50738;DHT22;36703;48.154;17.126;2023-05-07T11:39:02;32.30;30.70
50738;DHT22;36703;48.154;17.126;2023-05-07T11:43:11;32.00;30.30
50738;DHT22;36703;48.154;17.126;2023-05-07T11:47:18;31.90;30.20
50738;DHT22;36703;48.154;17.126;2023-05-07T11:51:22;31.90;30.10
50738;DHT22;36703;48.154;17.126;2023-05-07T11:55:25;31.60;30.00
50738;DHT22;36703;48.154;17.126;2023-05-07T11:59:27;31.10;30.30
50738;DHT22;36703;48.154;17.126;2023-05-07T12:03:28;30.60;30.50
50738;DHT22;36703;48.154;17.126;2023-05-07T12:07:30;30.20;30.70
50738;DHT22;36703;48.154;17.126;2023-05-07T12:11:37;29.70;30.90
50738;DHT22;36703;48.154;17.126;2023-05-07T12:15:41;29.30;31.00
50738;DHT22;36703;48.154;17.126;2023-05-07T12:19:44;28.90;31.20
50738;DHT22;36703;48.154;17.126;2023-05-07T12:23:46;28.50;31.50
50738;DHT22;36703;48.154;17.126;2023-05-07T12:27:52;28.30;31.70
50738;DHT22;36703;48.154;17.126;2023-05-07T12:31:54;28.10;31.90
50738;DHT22;36703;48.154;17.126;2023-05-07T12:35:56;28.00;32.10
50738;DHT22;36703;48.154;17.126;2023-05-07T12:40:08;27.70;32.30
50738;DHT22;36703;48.154;17.126;2023-05-07T12:44:10;27.50;32.40
50738;DHT22;36703;48.154;17.126;2023-05-07T12:48:12;27.40;32.50
50738;DHT22;36703;48.154;17.126;2023-05-07T12:52:14;27.30;32.50
50738;DHT22;36703;48.154;17.126;2023-05-07T12:56:16;27.10;32.70
50738;DHT22;36703;48.154;17.126;2023-05-07T13:00:18;27.00;32.80
50738;DHT22;36703;48.154;17.126;2023-05-07T13:04:39;26.80;32.80
50738;DHT22;36703;48.154;17.126;2023-05-07T13:08:41;26.50;32.90
50738;DHT22;36703;48.154;17.126;2023-05-07T13:12:45;26.40;33.10
50738;DHT22;36703;48.154;17.126;2023-05-07T13:16:47;26.30;33.20
50738;DHT22;36703;48.154;17.126;2023-05-07T13:20:49;26.20;33.30
50738;DHT22;36703;48.154;17.126;2023-05-07T13:24:51;26.10;33.40
50738;DHT22;36703;48.154;17.126;2023-05-07T13:28:53;26.10;33.60
50738;DHT22;36703;48.154;17.126;2023-05-07T13:32:55;26.00;33.80
50738;DHT22;36703;48.154;17.126;2023-05-07T13:36:57;25.90;34.00
50738;DHT22;36703;48.154;17.126;2023-05-07T13:40:59;25.70;34.00
50738;DHT22;36703;48.154;17.126;2023-05-07T13:45:00;25.60;34.20
50738;DHT22;36703;48.154;17.126;2023-05-07T13:49:04;25.50;34.40
50738;DHT22;36703;48.154;17.126;2023-05-07T13:53:05;25.50;34.60
50738;DHT22;36703;48.154;17.126;2023-05-07T13:57:08;25.40;34.60
50738;DHT22;36703;48.154;17.126;2023-05-07T14:01:09;25.40;34.60
50738;DHT22;36703;48.154;17.126;2023-05-07T14:05:11;25.20;34.60
50738;DHT22;36703;48.154;17.126;2023-05-07T14:09:14;25.10;34.70
50738;DHT22;36703;48.154;17.126;2023-05-07T14:13:16;25.10;34.90
50738;DHT22;36703;48.154;17.126;2023-05-07T14:17:18;25.10;35.00
50738;DHT22;36703;48.154;17.126;2023-05-07T14:21:20;25.10;35.00
50738;DHT22;36703;48.154;17.126;2023-05-07T14:25:21;25.00;35.00
50738;DHT22;36703;48.154;17.126;2023-05-07T14:29:26;24.90;35.10
50738;DHT22;36703;48.154;17.126;2023-05-07T14:33:27;24.80;35.30
50738;DHT22;36703;48.154;17.126;2023-05-07T14:37:29;24.70;35.40
50738;DHT22;36703;48.154;17.126;2023-05-07T14:41:30;24.60;35.50
50738;DHT22;36703;48.154;17.126;2023-05-07T14:45:34;24.60;35.60
50738;DHT22;36703;48.154;17.126;2023-05-07T14:49:35;24.50;35.60
50738;DHT22;36703;48.154;17.126;2023-05-07T14:53:37;24.40;35.50
50738;DHT22;36703;48.154;17.126;2023-05-07T14:57:39;24.30;35.70
50738;DHT22;36703;48.154;17.126;2023-05-07T15:01:41;24.20;35.80
50738;DHT22;36703;48.154;17.126;2023-05-07T15:05:46;24.20;35.90
50738;DHT22;36703;48.154;17.126;2023-05-07T15:09:47;24.20;36.00
50738;DHT22;36703;48.154;17.126;2023-05-07T15:13:49;24.20;35.90
50738;DHT22;36703;48.154;17.126;2023-05-07T15:17:51;24.00;35.80
50738;DHT22;36703;48.154;17.126;2023-05-07T15:21:53;23.80;35.80
50738;DHT22;36703;48.154;17.126;2023-05-07T15:25:54;23.80;36.00
50738;DHT22;36703;48.154;17.126;2023-05-07T15:29:56;23.80;36.10
50738;DHT22;36703;48.154;17.126;2023-05-07T15:33:59;23.80;36.20
50738;DHT22;36703;48.154;17.126;2023-05-07T15:38:01;23.70;36.20
50738;DHT22;36703;48.154;17.126;2023-05-07T15:42:04;23.50;36.30
50738;DHT22;36703;48.154;17.126;2023-05-07T15:46:05;23.50;36.50
50738;DHT22;36703;48.154;17.126;2023-05-07T15:50:07;23.40;36.50
50738;DHT22;36703;48.154;17.126;2023-05-07T15:54:09;23.20;36.60
50738;DHT22;36703;48.154;17.126;2023-05-07T15:58:11;23.10;36.70
50738;DHT22;36703;48.154;17.126;2023-05-07T16:02:12;23.10;36.90
50738;DHT22;36703;48.154;17.126;2023-05-07T16:06:14;23.00;36.80
50738;DHT22;36703;48.154;17.126;2023-05-07T16:10:16;22.90;36.80
50738;DHT22;36703;48.154;17.126;2023-05-07T16:14:17;22.80;36.90
50738;DHT22;36703;48.154;17.126;2023-05-07T16:18:19;22.70;37.10
50738;DHT22;36703;48.154;17.126;2023-05-07T16:22:21;22.60;37.10
50738;DHT22;36703;48.154;17.126;2023-05-07T16:26:22;22.50;37.30
50738;DHT22;36703;48.154;17.126;2023-05-07T16:30:24;22.50;37.40
50738;DHT22;36703;48.154;17.126;2023-05-07T16:34:26;22.50;37.40
50738;DHT22;36703;48.154;17.126;2023-05-07T16:38:27;22.40;37.40
50738;DHT22;36703;48.154;17.126;2023-05-07T16:42:33;22.30;37.40
50738;DHT22;36703;48.154;17.126;2023-05-07T16:46:35;22.20;37.40
50738;DHT22;36703;48.154;17.126;2023-05-07T16:50:37;22.10;37.50
50738;DHT22;36703;48.154;17.126;2023-05-07T16:54:38;22.00;37.70
50738;DHT22;36703;48.154;17.126;2023-05-07T16:58:40;22.00;39.00
50738;DHT22;36703;48.154;17.126;2023-05-07T17:02:42;21.90;41.50
50738;DHT22;36703;48.154;17.126;2023-05-07T17:06:44;21.80;49.90
50738;DHT22;36703;48.154;17.126;2023-05-07T17:10:46;21.70;50.00
50738;DHT22;36703;48.154;17.126;2023-05-07T17:14:47;21.60;39.40
50738;DHT22;36703;48.154;17.126;2023-05-07T17:18:49;21.30;37.70
50738;DHT22;36703;48.154;17.126;2023-05-07T17:22:51;21.20;37.90
50738;DHT22;36703;48.154;17.126;2023-05-07T17:26:52;21.00;37.90
50738;DHT22;36703;48.154;17.126;2023-05-07T17:30:54;21.00;38.00
50738;DHT22;36703;48.154;17.126;2023-05-07T17:34:55;21.00;38.00
50738;DHT22;36703;48.154;17.126;2023-05-07T17:38:57;20.90;38.10
50738;DHT22;36703;48.154;17.126;2023-05-07T17:42:59;20.80;38.30
50738;DHT22;36703;48.154;17.126;2023-05-07T17:47:00;20.70;38.40
50738;DHT22;36703;48.154;17.126;2023-05-07T17:51:02;20.10;38.50
50738;DHT22;36703;48.154;17.126;2023-05-07T17:55:04;20.40;38.90
50738;DHT22;36703;48.154;17.126;2023-05-07T17:59:07;20.10;39.00
50738;DHT22;36703;48.154;17.126;2023-05-07T18:03:08;20.10;39.20
50738;DHT22;36703;48.154;17.126;2023-05-07T18:07:10;20.00;39.30
50738;DHT22;36703;48.154;17.126;2023-05-07T18:11:11;19.80;39.30
50738;DHT22;36703;48.154;17.126;2023-05-07T18:15:13;19.70;39.60
50738;DHT22;36703;48.154;17.126;2023-05-07T18:19:15;19.60;40.90
50738;DHT22;36703;48.154;17.126;2023-05-07T18:23:16;19.50;43.20
50738;DHT22;36703;48.154;17.126;2023-05-07T18:27:18;19.50;46.20
50738;DHT22;36703;48.154;17.126;2023-05-07T18:31:19;19.20;40.20
50738;DHT22;36703;48.154;17.126;2023-05-07T18:35:21;19.10;40.40
50738;DHT22;36703;48.154;17.126;2023-05-07T18:39:23;19.00;40.50
50738;DHT22;36703;48.154;17.126;2023-05-07T18:43:24;18.80;40.60
50738;DHT22;36703;48.154;17.126;2023-05-07T18:47:26;18.70;41.00
50738;DHT22;36703;48.154;17.126;2023-05-07T18:51:27;18.70;41.00
50738;DHT22;36703;48.154;17.126;2023-05-07T18:55:29;18.70;41.20
50738;DHT22;36703;48.154;17.126;2023-05-07T18:59:31;18.70;41.20
50738;DHT22;36703;48.154;17.126;2023-05-07T19:03:33;18.50;41.40
50738;DHT22;36703;48.154;17.126;2023-05-07T19:07:38;18.50;41.60
50738;DHT22;36703;48.154;17.126;2023-05-07T19:11:39;18.50;41.50
50738;DHT22;36703;48.154;17.126;2023-05-07T19:15:41;18.50;41.60
50738;DHT22;36703;48.154;17.126;2023-05-07T19:19:42;18.60;41.40
50738;DHT22;36703;48.154;17.126;2023-05-07T19:23:49;18.70;41.60
50738;DHT22;36703;48.154;17.126;2023-05-07T19:27:53;18.40;41.80
50738;DHT22;36703;48.154;17.126;2023-05-07T19:31:56;18.40;42.10
50738;DHT22;36703;48.154;17.126;2023-05-07T19:35:58;18.20;41.80
50738;DHT22;36703;48.154;17.126;2023-05-07T19:40:00;18.20;42.00
50738;DHT22;36703;48.154;17.126;2023-05-07T19:44:05;18.20;42.00
50738;DHT22;36703;48.154;17.126;2023-05-07T19:48:06;18.10;41.80
50738;DHT22;36703;48.154;17.126;2023-05-07T19:52:08;18.10;42.00
50738;DHT22;36703;48.154;17.126;2023-05-07T19:56:11;18.10;42.10
50738;DHT22;36703;48.154;17.126;2023-05-07T20:00:13;18.00;42.00
50738;DHT22;36703;48.154;17.126;2023-05-07T20:04:14;18.00;42.10
50738;DHT22;36703;48.154;17.126;2023-05-07T20:08:16;17.80;42.40
50738;DHT22;36703;48.154;17.126;2023-05-07T20:12:18;17.70;42.70
50738;DHT22;36703;48.154;17.126;2023-05-07T20:16:21;17.70;42.70
50738;DHT22;36703;48.154;17.126;2023-05-07T20:20:23;17.70;42.60
50738;DHT22;36703;48.154;17.126;2023-05-07T20:24:24;17.80;42.50
50738;DHT22;36703;48.154;17.126;2023-05-07T20:28:26;17.80;42.30
50738;DHT22;36703;48.154;17.126;2023-05-07T20:32:27;17.70;42.40
50738;DHT22;36703;48.154;17.126;2023-05-07T20:36:29;17.80;42.40
50738;DHT22;36703;48.154;17.126;2023-05-07T20:40:30;18.10;42.80
50738;DHT22;36703;48.154;17.126;2023-05-07T20:44:35;17.70;42.20
50738;DHT22;36703;48.154;17.126;2023-05-07T20:48:37;17.70;42.30
50738;DHT22;36703;48.154;17.126;2023-05-07T20:52:38;17.70;42.20
50738;DHT22;36703;48.154;17.126;2023-05-07T20:56:40;17.60;42.20
50738;DHT22;36703;48.154;17.126;2023-05-07T21:00:42;17.70;42.20
50738;DHT22;36703;48.154;17.126;2023-05-07T21:04:43;17.70;42.20
50738;DHT22;36703;48.154;17.126;2023-05-07T21:08:45;17.60;42.40
50738;DHT22;36703;48.154;17.126;2023-05-07T21:12:46;17.80;42.50
50738;DHT22;36703;48.154;17.126;2023-05-07T21:16:48;17.30;42.50
50738;DHT22;36703;48.154;17.126;2023-05-07T21:20:49;17.30;42.80
50738;DHT22;36703;48.154;17.126;2023-05-07T21:24:51;17.40;42.70
50738;DHT22;36703;48.154;17.126;2023-05-07T21:28:53;17.20;42.50
50738;DHT22;36703;48.154;17.126;2023-05-07T21:32:54;17.20;42.40
50738;DHT22;36703;48.154;17.126;2023-05-07T21:36:56;17.10;42.40
50738;DHT22;36703;48.154;17.126;2023-05-07T21:40:57;17.10;42.50
50738;DHT22;36703;48.154;17.126;2023-05-07T21:44:59;17.30;42.40
50738;DHT22;36703;48.154;17.126;2023-05-07T21:49:00;17.20;42.30
50738;DHT22;36703;48.154;17.126;2023-05-07T21:53:02;17.10;42.20
50738;DHT22;36703;48.154;17.126;2023-05-07T21:57:03;17.10;46.50
50738;DHT22;36703;48.154;17.126;2023-05-07T22:01:05;16.90;42.50
50738;DHT22;36703;48.154;17.126;2023-05-07T22:05:07;16.80;42.70
50738;DHT22;36703;48.154;17.126;2023-05-07T22:09:09;16.70;42.60
50738;DHT22;36703;48.154;17.126;2023-05-07T22:13:11;16.70;42.60
50738;DHT22;36703;48.154;17.126;2023-05-07T22:17:12;16.60;42.60
50738;DHT22;36703;48.154;17.126;2023-05-07T22:21:14;16.60;42.70
50738;DHT22;36703;48.154;17.126;2023-05-07T22:25:16;16.60;42.80
50738;DHT22;36703;48.154;17.126;2023-05-07T22:29:17;16.70;42.70
50738;DHT22;36703;48.154;17.126;2023-05-07T22:33:21;16.70;42.50
50738;DHT22;36703;48.154;17.126;2023-05-07T22:37:22;16.80;42.40
50738;DHT22;36703;48.154;17.126;2023-05-07T22:41:24;16.80;42.30
50738;DHT22;36703;48.154;17.126;2023-05-07T22:45:25;16.80;42.30
50738;DHT22;36703;48.154;17.126;2023-05-07T22:49:27;16.70;42.30
50738;DHT22;36703;48.154;17.126;2023-05-07T22:53:29;16.60;42.40
50738;DHT22;36703;48.154;17.126;2023-05-07T22:57:30;16.50;42.40
50738;DHT22;36703;48.154;17.126;2023-05-07T23:01:32;16.50;42.50
50738;DHT22;36703;48.154;17.126;2023-05-07T23:05:33;16.40;42.50
50738;DHT22;36703;48.154;17.126;2023-05-07T23:09:35;16.50;42.60
50738;DHT22;36703;48.154;17.126;2023-05-07T23:13:37;16.50;42.50
50738;DHT22;36703;48.154;17.126;2023-05-07T23:17:38;16.60;42.40
50738;DHT22;36703;48.154;17.126;2023-05-07T23:21:40;16.70;42.10
50738;DHT22;36703;48.154;17.126;2023-05-07T23:25:41;16.80;42.00
50738;DHT22;36703;48.154;17.126;2023-05-07T23:29:44;16.80;41.90
50738;DHT22;36703;48.154;17.126;2023-05-07T23:33:46;16.90;41.80
50738;DHT22;36703;48.154;17.126;2023-05-07T23:37:48;16.80;41.80
50738;DHT22;36703;48.154;17.126;2023-05-07T23:41:49;16.80;41.80
50738;DHT22;36703;48.154;17.126;2023-05-07T23:45:51;16.70;41.80
50738;DHT22;36703;48.154;17.126;2023-05-07T23:49:53;16.60;42.00
50738;DHT22;36703;48.154;17.126;2023-05-07T23:53:54;16.40;42.20
50738;DHT22;36703;48.154;17.126;2023-05-07T23:57:57;16.30;42.30
